Time;durP1;ratioP1;P1;durP2;ratioP2;P2;SDS_P1;SDS_P2;PMS_P1;PMS_P2;Temp;Humidity;BMP_temperature;BMP_pressure;BME280_temperature;BME280_humidity;BME280_pressure;Samples;Min_cycle;Max_cycle;Signal;HPM_P1;HPM_P2
2022/04/04 00:01:10;;;;;;;1.47;0.77;;;;;;;;;;20590371;28;20271;-85
2022/04/04 00:11:12;;;;;;;0.50;0.50;;;;;;;;;;20589856;28;20691;-84
2022/04/04 00:21:14;;;;;;;0.90;0.60;;;;;;;;;;20589208;28;20216;-85
2022/04/04 00:31:16;;;;;;;1.30;1.00;;;;;;;;;;20556422;28;20683;-85
2022/04/04 00:41:18;;;;;;;2.27;0.90;;;;;;;;;;20555666;28;20267;-84
2022/04/04 00:51:20;;;;;;;1.10;0.77;;;;;;;;;;20586850;28;20691;-85
2022/04/04 01:01:22;;;;;;;1.80;0.77;;;;;;;;;;20618326;28;20706;-84
2022/04/04 01:11:24;;;;;;;0.80;0.57;;;;;;;;;;20634283;28;20313;-84
2022/04/04 01:34:06;;;;;;;0.70;0.43;;;;;;;;;;21313540;27;20573;-62
2022/04/04 01:44:09;;;;;;;1.10;0.67;;;;;;;;;;21178841;27;20621;-62
2022/04/04 01:54:11;;;;;;;0.47;0.47;;;;;;;;;;21178058;27;20215;-62
2022/04/04 02:04:13;;;;;;;0.93;0.60;;;;;;;;;;21160563;27;20208;-62
2022/04/04 02:14:15;;;;;;;0.30;0.30;;;2.70;99.90;;;;;;21159657;27;20200;-62
2022/04/04 02:24:17;;;;;;;0.70;0.60;;;;;;;;;;21175305;27;20203;-62
2022/04/04 02:34:19;;;;;;;1.03;0.60;;;;;;;;;;21158274;27;20229;-62
2022/04/04 02:44:21;;;;;;;0.73;0.57;;;;;;;;;;21140764;28;20200;-62
2022/04/04 02:54:23;;;;;;;0.30;0.30;;;;;;;;;;21133347;28;20195;-62
2022/04/04 03:04:24;;;;;;;0.80;0.67;;;;;;;;;;21107223;28;20269;-62
2022/04/04 03:14:26;;;;;;;1.30;0.90;;;;;;;;;;21029864;22;20229;-64
2022/04/04 03:24:28;;;;;;;0.63;0.63;;;;;;;;;;20823803;28;20599;-64
2022/04/04 03:34:30;;;;;;;1.00;0.80;;;;;;;;;;20825309;28;20219;-64
2022/04/04 03:44:32;;;;;;;1.17;0.80;;;;;;;;;;20808810;28;20214;-63
2022/04/04 03:54:34;;;;;;;0.97;0.63;;;1.90;99.90;;;;;;20844547;28;20631;-64
2022/04/04 04:04:36;;;;;;;2.10;1.03;;;;;;;;;;20813937;28;20210;-65
2022/04/04 04:14:39;;;;;;;1.57;1.07;;;;;;;;;;20859534;28;20688;-65
2022/04/04 04:24:41;;;;;;;0.80;0.70;;;;;;;;;;20866956;28;20214;-65
2022/04/04 04:34:48;;;;;;;1.23;1.13;;;;;;;;;;20884777;28;20221;-65
2022/04/04 04:44:51;;;;;;;1.03;0.93;;;;;;;;;;20859024;28;20267;-64
2022/04/04 04:54:53;;;;;;;2.10;1.40;;;1.50;99.90;;;;;;20857638;28;20637;-65
2022/04/04 05:04:55;;;;;;;1.87;1.07;;;;;;;;;;20851971;28;20273;-64
2022/04/04 05:14:57;;;;;;;1.77;1.23;;;;;;;;;;20756293;28;20210;-64
2022/04/04 05:24:59;;;;;;;3.23;1.33;;;;;;;;;;20751029;28;20292;-64
2022/04/04 05:35:01;;;;;;;1.73;1.40;;;;;;;;;;20773141;28;20628;-67
2022/04/04 05:45:03;;;;;;;2.10;1.43;;;1.20;99.90;;;;;;20757257;28;20629;-64
2022/04/04 05:55:05;;;;;;;2.27;1.33;;;;;;;;;;20774545;28;20277;-64
2022/04/04 06:05:11;;;;;;;1.63;1.53;;;1.80;99.90;;;;;;20691441;28;20273;-64
2022/04/04 06:15:14;;;;;;;2.17;1.47;;;;;;;;;;20771640;28;20624;-64
2022/04/04 06:25:16;;;;;;;3.03;2.27;;;;;;;;;;20778643;28;20731;-64
2022/04/04 06:35:18;;;;;;;2.60;2.10;;;2.50;99.90;;;;;;20805166;28;20217;-64
2022/04/04 06:45:20;;;;;;;3.00;1.77;;;;;;;;;;20811628;28;20223;-63
2022/04/04 06:55:23;;;;;;;1.70;1.30;;;;;;;;;;20719030;28;20222;-64
2022/04/04 07:05:25;;;;;;;1.97;1.50;;;;;;;;;;20830833;28;20686;-64
2022/04/04 07:15:27;;;;;;;0.43;0.43;;;;;;;;;;20826315;28;20221;-64
2022/04/04 07:25:29;;;;;;;2.50;1.50;;;;;;;;;;20787582;28;20215;-64
2022/04/04 07:35:31;;;;;;;4.93;2.53;;;;;;;;;;20749123;28;20218;-64
2022/04/04 07:45:33;;;;;;;4.33;1.77;;;;;;;;;;20778916;28;20292;-64
2022/04/04 07:55:36;;;;;;;4.27;1.97;;;;;;;;;;20771988;28;20260;-64
2022/04/04 08:05:38;;;;;;;3.27;2.07;;;;;;;;;;20794489;28;20206;-66
2022/04/04 08:15:40;;;;;;;2.20;1.43;;;;;;;;;;20781395;28;20223;-64
2022/04/04 08:25:42;;;;;;;2.13;1.17;;;;;;;;;;20784919;28;20210;-65
2022/04/04 08:35:45;;;;;;;0.77;0.70;;;;;;;;;;20790915;28;20215;-65
2022/04/04 08:45:49;;;;;;;2.07;1.13;;;;;;;;;;20729402;28;20222;-64
2022/04/04 08:55:51;;;;;;;0.73;0.40;;;;;;;;;;20765056;28;20632;-64
2022/04/04 09:05:56;;;;;;;0.80;0.60;;;5.90;99.90;;;;;;20757879;28;20253;-64
2022/04/04 09:16:03;;;;;;;1.87;1.20;;;;;;;;;;20847246;22;20295;-65
2022/04/04 09:26:24;;;;;;;1.00;0.87;;;7.20;99.90;;;;;;20871737;28;20202;-65
2022/04/04 09:36:26;;;;;;;1.40;0.87;;;;;;;;;;20858140;28;20225;-65
2022/04/04 09:46:32;;;;;;;1.70;1.13;;;;;;;;;;20851749;28;20264;-65
2022/04/04 09:56:35;;;;;;;1.00;0.90;;;;;;;;;;20847903;28;20255;-65
2022/04/04 10:06:39;;;;;;;1.23;0.70;;;8.40;99.90;;;;;;20880164;28;20206;-65
2022/04/04 10:16:41;;;;;;;4.23;0.93;;;;;;;;;;20860455;28;20233;-64
2022/04/04 10:26:44;;;;;;;0.50;0.40;;;8.50;99.90;;;;;;20869038;28;20206;-65
2022/04/04 10:36:58;;;;;;;0.60;0.43;;;9.20;99.90;;;;;;20868581;28;20222;-65
2022/04/04 10:47:18;;;;;;;1.37;0.63;;;9.20;99.90;;;;;;20865932;28;20225;-68
2022/04/04 10:57:23;;;;;;;0.40;0.37;;;;;;;;;;20903826;28;20407;-67
2022/04/04 11:07:41;;;;;;;1.53;0.83;;;9.70;99.90;;;;;;20884362;28;20284;-66
2022/04/04 11:18:00;;;;;;;0.43;0.40;;;;;;;;;;20972719;22;20229;-68
2022/04/04 11:28:02;;;;;;;0.57;0.40;;;9.90;99.90;;;;;;20999294;28;20205;-68
2022/04/04 11:38:06;;;;;;;0.97;0.70;;;;;;;;;;20997065;28;20623;-68
2022/04/04 11:48:14;;;;;;;1.20;0.60;;;;;;;;;;20994595;28;20213;-68
2022/04/04 11:58:20;;;;;;;4.83;0.97;;;10.40;99.90;;;;;;20994776;28;20294;-68
2022/04/04 12:08:22;;;;;;;0.70;0.50;;;9.70;99.20;;;;;;20994558;28;20250;-68
2022/04/04 12:18:25;;;;;;;0.73;0.70;;;;;;;;;;20991473;28;20221;-68
2022/04/04 12:28:31;;;;;;;1.27;0.60;;;;;;;;;;20949966;28;20267;-68
2022/04/04 12:38:38;;;;;;;0.57;0.40;;;11.00;99.90;;;;;;20961591;28;20287;-68
2022/04/04 12:48:41;;;;;;;2.33;1.03;;;;;;;;;;20954216;28;20229;-68
2022/04/04 12:58:42;;;;;;;0.93;0.60;;;;;;;;;;20978006;28;20217;-68
2022/04/04 13:08:58;;;;;;;1.60;0.70;;;;;;;;;;20978470;28;20263;-68
2022/04/04 13:18:59;;;;;;;1.80;1.00;;;10.60;99.90;;;;;;20985643;28;20270;-68
2022/04/04 13:29:01;;;;;;;1.93;1.17;;;;;;;;;;20987848;28;20197;-67
2022/04/04 13:39:09;;;;;;;3.50;1.00;;;10.00;99.90;;;;;;20982084;28;20294;-68
2022/04/04 13:49:11;;;;;;;0.87;0.57;;;;;;;;;;20964500;28;20205;-68
2022/04/04 13:59:13;;;;;;;1.40;0.70;;;;;;;;;;20893477;28;20275;-68
2022/04/04 14:09:14;;;;;;;0.80;0.67;;;;;;;;;;20926964;28;20580;-68
2022/04/04 14:19:17;;;;;;;1.03;0.57;;;;;;;;;;20953856;28;20233;-68
2022/04/04 14:29:23;;;;;;;1.37;0.97;;;;;;;;;;20945867;28;20217;-67
2022/04/04 14:39:25;;;;;;;0.40;0.40;;;;;;;;;;20947050;28;20561;-68
2022/04/04 14:49:27;;;;;;;2.03;0.80;;;;;;;;;;20912776;28;20263;-67
2022/04/04 14:59:30;;;;;;;0.80;0.50;;;;;;;;;;20907321;28;20954;-67
2022/04/04 15:09:32;;;;;;;1.03;0.60;;;;;;;;;;20901294;28;20205;-68
2022/04/04 15:19:34;;;;;;;1.07;0.67;;;;;;;;;;20966380;28;20716;-67
2022/04/04 15:29:36;;;;;;;13.90;1.77;;;;;;;;;;20956541;28;20274;-68
2022/04/04 15:39:37;;;;;;;2.20;0.70;;;;;;;;;;20968973;28;20258;-68
2022/04/04 15:49:40;;;;;;;0.87;0.47;;;;;;;;;;20995430;22;20298;-65
2022/04/04 15:59:42;;;;;;;0.73;0.57;;;;;;;;;;20914328;28;20712;-65
2022/04/04 16:09:44;;;;;;;1.10;0.53;;;;;;;;;;20919879;28;20213;-65
2022/04/04 16:19:46;;;;;;;2.47;0.93;;;;;;;;;;20872204;28;20217;-65
2022/04/04 16:29:50;;;;;;;0.63;0.57;;;;;;;;;;20867483;28;20210;-64
2022/04/04 16:39:52;;;;;;;4.03;1.20;;;;;;;;;;20902696;28;20244;-65
2022/04/04 16:49:54;;;;;;;0.90;0.80;;;;;;;;;;20908603;28;20700;-65
2022/04/04 16:59:56;;;;;;;2.37;1.43;;;;;;;;;;20916914;28;20757;-65
2022/04/04 17:10:01;;;;;;;3.43;1.17;;;;;;;;;;20899024;28;20251;-64
2022/04/04 17:20:03;;;;;;;2.03;1.00;;;;;;;;;;20915921;28;20278;-64
2022/04/04 17:30:06;;;;;;;2.00;1.50;;;8.50;99.90;;;;;;20885380;28;20213;-64
2022/04/04 17:40:09;;;;;;;2.00;1.23;;;8.60;99.90;;;;;;20906655;28;20224;-64
2022/04/04 17:50:13;;;;;;;2.30;1.00;;;;;;;;;;20908484;28;20228;-64
2022/04/04 18:00:15;;;;;;;0.40;0.40;;;;;;;;;;20902464;28;20214;-64
2022/04/04 18:10:17;;;;;;;1.83;1.30;;;;;;;;;;20865329;28;20260;-64
2022/04/04 18:20:19;;;;;;;0.93;0.60;;;;;;;;;;20898482;28;20550;-65
2022/04/04 18:30:21;;;;;;;1.50;1.40;;;;;;;;;;20901944;28;20198;-64
2022/04/04 18:40:23;;;;;;;1.27;1.00;;;;;;;;;;20849410;28;20221;-65
2022/04/04 18:50:24;;;;;;;0.67;0.60;;;;;;;;;;20893527;28;20233;-65
2022/04/04 19:00:27;;;;;;;1.70;1.20;;;8.60;99.90;;;;;;20939936;28;20221;-65
2022/04/04 19:10:29;;;;;;;2.90;1.90;;;8.20;99.90;;;;;;20971766;28;20213;-64
2022/04/04 19:20:31;;;;;;;1.37;1.27;;;;;;;;;;20955071;28;20247;-65
2022/04/04 19:30:33;;;;;;;0.63;0.53;;;;;;;;;;20916346;28;20697;-64
2022/04/04 19:40:35;;;;;;;2.83;1.20;;;;;;;;;;20933600;28;20213;-65
2022/04/04 19:50:37;;;;;;;0.73;0.57;;;;;;;;;;20923098;28;20303;-65
2022/04/04 20:00:39;;;;;;;1.10;1.00;;;;;;;;;;20938441;28;20213;-64
2022/04/04 20:10:41;;;;;;;1.43;0.90;;;;;;;;;;20917521;28;20726;-64
2022/04/04 20:20:43;;;;;;;0.97;0.80;;;;;;;;;;20925211;28;20699;-65
2022/04/04 20:30:45;;;;;;;0.87;0.80;;;;;;;;;;20940320;28;20582;-64
2022/04/04 20:40:48;;;;;;;2.37;1.47;;;;;;;;;;20939111;28;20271;-65
2022/04/04 20:50:50;;;;;;;1.30;0.80;;;7.80;99.90;;;;;;20972972;28;20247;-64
2022/04/04 21:00:52;;;;;;;1.23;1.10;;;;;;;;;;20939774;28;20749;-65
2022/04/04 21:10:55;;;;;;;1.80;1.23;;;7.80;99.90;;;;;;20939161;28;20230;-64
2022/04/04 21:20:57;;;;;;;1.17;0.93;;;;;;;;;;20938361;28;20239;-64
2022/04/04 21:30:59;;;;;;;1.90;1.27;;;;;;;;;;20941256;28;20302;-64
2022/04/04 21:41:01;;;;;;;2.57;1.10;;;;;;;;;;20953459;28;20216;-64
2022/04/04 21:51:03;;;;;;;1.10;0.97;;;7.60;99.90;;;;;;20953970;28;20695;-65
2022/04/04 22:01:06;;;;;;;1.10;0.80;;;;;;;;;;20923178;28;20259;-65
2022/04/04 22:11:08;;;;;;;1.23;0.70;;;;;;;;;;20952640;28;20245;-65
2022/04/04 22:21:10;;;;;;;0.40;0.40;;;;;;;;;;20935489;28;20685;-65
2022/04/04 22:31:12;;;;;;;0.93;0.67;;;;;;;;;;20968030;28;20225;-65
2022/04/04 22:41:14;;;;;;;0.30;0.30;;;;;;;;;;20932768;28;20255;-65
2022/04/04 22:51:16;;;;;;;1.50;0.97;;;;;;;;;;20944651;28;20564;-65
2022/04/04 23:01:18;;;;;;;1.03;0.70;;;;;;;;;;20932136;28;20217;-65
2022/04/04 23:11:20;;;;;;;1.20;0.50;;;7.60;99.90;;;;;;20965104;28;20210;-65
2022/04/04 23:21:22;;;;;;;0.67;0.53;;;;;;;;;;20933835;28;20217;-65
2022/04/04 23:31:25;;;;;;;0.63;0.50;;;;;;;;;;20940285;28;20230;-65
2022/04/04 23:41:27;;;;;;;3.13;0.30;;;;;;;;;;20927172;28;20642;-65
2022/04/04 23:51:29;;;;;;;0.57;0.43;;;;;;;;;;20945252;28;20209;-65
